Flight Track Log - Related Links

Times and Time Zones

All times are in EDT time to prevent confusion due to time zone crossing. See the GJS3706 flight status page for this flight to view local times or setup timezone preferences in your user account.

Time Position Orientation Groundspeed Altitude Reporting Facility
EDT Latitude Longitude Course Direction KTS MPH feet Rate Location/Type
Sun 12:05:41 PM 44.4536 -73.3358 258° West 220 253 5,300  Level Boston Center
Sun 12:06:39 PM 44.4361 -73.4372 256° West 274 315 7,800 2,471 Climbing Boston Center
Sun 12:07:00 PM 44.4186 -73.6780 255° West  Level Estimated
Sun 12:07:40 PM 44.4208 -73.5242 256° West 264 304 10,200  Level Boston Center
Sun 12:08:00 PM 44.3876 -73.8030 251° West  Level FlightAware
Sun 12:08:41 PM 44.4008 -73.6489 257° West 283 326 12,000  Level Boston Center
Sun 12:09:00 PM 44.3564 -73.9279 251° West  Level FlightAware
Sun 12:09:41 PM 44.3786 -73.7675 255° West 312 359 14,700  Level Boston Center
Sun 12:10:00 PM 44.3427 -74.0588 258° West  Level Estimated
Sun 12:10:39 PM 44.3564 -73.8889 256° West 317 365 16,400  Level Boston Center
Sun 12:11:39 PM 44.3339 -74.0103 256° West 323 372 18,300 1,835 Climbing Boston Center
Sun 12:12:40 PM 44.3133 -74.1375 257° West 328 377 20,100 1,672 Climbing Boston Center
Sun 12:13:41 PM 44.2928 -74.2672 258° West 338 389 21,700 1,438 Climbing Boston Center
Sun 12:14:41 PM 44.2656 -74.3997 254° West 344 396 23,000 1,250 Climbing Boston Center
Sun 12:15:41 PM 44.2422 -74.5381 257° West 361 415 24,200 1,119 Climbing Boston Center
Sun 12:16:39 PM 44.2167 -74.6792 256° West 371 427 25,200 1,017 Climbing Boston Center
Sun 12:17:39 PM 44.1886 -74.8289 255° West 389 448 26,200 1,041 Climbing Boston Center
Sun 12:18:40 PM 44.1628 -74.9694 256° West 402 463 27,300 1,033 Climbing Boston Center
Sun 12:19:41 PM 44.1364 -75.1161 256° West 402 463 28,300 992 Climbing Boston Center
Sun 12:20:41 PM 44.1078 -75.2708 256° West 407 468 29,300 950 Climbing Boston Center
Sun 12:21:41 PM 44.0789 -75.4228 255° West 412 474 30,200 915 Climbing Boston Center
Sun 12:22:39 PM 44.0497 -75.5772 255° West 412 474 31,100 915 Climbing Boston Center
Sun 12:23:39 PM 44.0203 -75.7317 255° West 412 474 32,000 934 Climbing Boston Center
Sun 12:24:41 PM 43.9908 -75.8858 255° West 412 474 33,000 984 Climbing Boston Center
Sun 12:25:41 PM 43.9611 -76.0400 255° West 412 474 34,000 915 Climbing Boston Center
Sun 12:26:39 PM 43.9439 -76.1889 261° West 407 468 34,800 814 Climbing Boston Center
Sun 12:27:39 PM 43.9325 -76.3383 264° West 407 468 35,600 595 Climbing Boston Center
Sun 12:28:40 PM 43.9189 -76.4903 263° West 407 468 36,000 180 Climbing Boston Center
Sun 12:29:52 PM 43.8833 -76.6500 253° West 400 460 36,000  Level Toronto Center
Sun 12:30:52 PM 43.8667 -76.8167 262° West 400 460 36,000  Level Toronto Center
Sun 12:31:52 PM 43.8500 -76.9667 261° West 410 472 36,000  Level Toronto Center
Sun 12:32:52 PM 43.8333 -77.1333 262° West 410 472 36,000  Level Toronto Center
Sun 12:33:52 PM 43.8167 -77.2833 261° West 400 460 36,000  Level Toronto Center
Sun 12:34:52 PM 43.8167 -77.4333 270° West 410 472 36,000  Level Toronto Center
Sun 12:35:52 PM 43.8000 -77.6000 262° West 400 460 36,000  Level Toronto Center
Sun 12:36:52 PM 43.7833 -77.7333 260° West 400 460 36,000  Level Toronto Center
Sun 12:37:52 PM 43.7667 -77.9000 262° West 400 460 36,000  Level Toronto Center
Sun 12:38:52 PM 43.7500 -78.0667 262° West 410 472 36,000  Level Toronto Center
Sun 12:39:52 PM 43.7333 -78.2000 260° West 410 472 36,000  Level Toronto Center
Sun 12:40:52 PM 43.7000 -78.3667 255° West 410 472 36,000  Level Toronto Center
Sun 12:41:52 PM 43.7000 -78.5333 270° West 410 472 36,000  Level Toronto Center
Sun 12:42:52 PM 43.6833 -78.6833 261° West 400 460 36,000  Level Toronto Center
Sun 12:43:52 PM 43.6667 -78.8333 261° West 410 472 36,000  Level Toronto Center
Sun 12:44:52 PM 43.6500 -78.9833 261° West 410 472 36,000  Level Toronto Center
Sun 12:45:52 PM 43.6333 -79.1500 262° West 410 472 36,000  Level Toronto Center
Sun 12:46:52 PM 43.6333 -79.3167 270° West 410 472 36,000  Level Toronto Center
Sun 12:47:52 PM 43.6000 -79.4667 253° West 410 472 36,000  Level Toronto Center
Sun 12:48:52 PM 43.6000 -79.6167 270° West 420 483 36,000  Level Toronto Center
Sun 12:49:52 PM 43.5833 -79.7667 261° West 420 483 36,000  Level Toronto Center
Sun 12:50:52 PM 43.5667 -79.9333 262° West 410 472 36,000  Level Toronto Center
Sun 12:51:52 PM 43.5500 -80.1000 262° West 420 483 36,000  Level Toronto Center
Sun 12:52:52 PM 43.5333 -80.2500 261° West 420 483 36,000  Level Toronto Center
Sun 12:53:52 PM 43.5167 -80.4167 262° West 410 472 36,000  Level Toronto Center
Sun 12:54:52 PM 43.5000 -80.5833 262° West 410 472 36,000  Level Toronto Center
Sun 12:55:52 PM 43.4833 -80.7167 260° West 410 472 36,000  Level Toronto Center
Sun 12:56:52 PM 43.4500 -80.8667 253° West 420 483 36,000  Level Toronto Center
Sun 12:57:52 PM 43.4333 -81.0333 262° West 420 483 36,000  Level Toronto Center
Sun 12:58:52 PM 43.4167 -81.2000 262° West 420 483 36,000  Level Toronto Center
Sun 12:59:52 PM 43.4000 -81.3500 261° West 420 483 36,000  Level Toronto Center
Sun 01:00:52 PM 43.3833 -81.5167 262° West 410 472 36,000  Level Toronto Center
Sun 01:01:52 PM 43.3667 -81.6667 261° West 420 483 36,000  Level Toronto Center
Sun 01:02:52 PM 43.3667 -81.8167 270° West 410 472 36,000  Level Toronto Center
Sun 01:03:52 PM 43.3333 -81.9667 253° West 410 472 36,000  Level Toronto Center
Sun 01:04:52 PM 43.3167 -82.1333 262° West 410 472 36,000  Level Toronto Center
Sun 01:05:52 PM 43.3000 -82.2833 261° West 410 472 36,000  Level Toronto Center
Sun 01:06:52 PM 43.2833 -82.4500 262° West 410 472 36,000  Level Toronto Center
Sun 01:07:52 PM 43.2667 -82.5833 260° West 410 472 36,000  Level Toronto Center
Sun 01:08:52 PM 43.2333 -82.7500 255° West 410 472 36,000  Level Toronto Center
Sun 01:09:52 PM 43.1833 -82.9000 245° Southwest 420 483 36,000  Level Toronto Center
Sun 01:10:52 PM 43.1500 -83.0667 255° West 430 495 36,000  Level Toronto Center
Sun 01:11:52 PM 43.1167 -83.2000 251° West 440 506 36,000  Level Toronto Center
Sun 01:12:52 PM 43.0500 -83.3833 244° Southwest 430 495 36,000  Level Toronto Center
Sun 01:13:52 PM 43.0167 -83.5167 251° West 420 483 36,000 -100 Level Toronto Center
Sun 01:14:52 PM 42.9833 -83.6667 253° West 430 495 35,800 -600 Descending Toronto Center
Sun 01:15:52 PM 42.9333 -83.8167 246° West 430 495 34,800 -953 Descending Toronto Center
Sun 01:16:39 PM 42.9492 -83.9281 281° West 422 486 34,100 -936 Descending Chicago Center
Sun 01:17:41 PM 42.9336 -84.0864 262° West 422 486 33,100 -871 Descending Chicago Center
Sun 01:18:43 PM 42.9178 -84.2450 262° West 422 486 32,300 -532 Descending Chicago Center
Sun 01:19:45 PM 42.8986 -84.4372 262° West 428 493 32,000 -145 Descending Chicago Center
Sun 01:20:47 PM 42.8825 -84.5986 262° West 431 496 32,000  Level Chicago Center
Sun 01:21:49 PM 42.8661 -84.7597 262° West 431 496 32,000  Level Chicago Center
Sun 01:22:51 PM 42.8492 -84.9181 262° West 423 487 32,000  Level Chicago Center
Sun 01:23:53 PM 42.8322 -85.0753 262° West 421 484 32,000  Level Chicago Center
Sun 01:24:56 PM 42.8158 -85.2319 262° West 420 483 32,000  Level Chicago Center
Sun 01:25:58 PM 42.7942 -85.4222 261° West 423 487 32,000 -919 Level Chicago Center
Sun 01:27:00 PM 42.7700 -85.5872 259° West 440 506 30,100 -2,226 Descending Chicago Center
Sun 01:28:02 PM 42.7408 -85.7517 256° West 444 511 27,400 -2,516 Descending Chicago Center
Sun 01:29:04 PM 42.7125 -85.9097 256° West 431 496 24,900 -2,323 Descending Chicago Center
Sun 01:30:06 PM 42.6839 -86.0664 256° West 425 489 22,600 -2,129 Descending Chicago Center
Sun 01:31:08 PM 42.6564 -86.2167 256° West 412 474 20,500 -1,548 Descending Chicago Center
Sun 01:32:10 PM 42.6294 -86.3597 256° West 394 453 19,400 -1,258 Descending Chicago Center
Sun 01:33:12 PM 42.6036 -86.5028 256° West 391 450 17,900 -1,790 Descending Chicago Center
Sun 01:34:14 PM 42.5722 -86.6708 256° West 387 445 15,700 -1,984 Descending Chicago Center
Sun 01:35:16 PM 42.5397 -86.8056 252° West 379 436 13,800 -1,839 Descending Chicago Center
Sun 01:36:18 PM 42.5053 -86.9325 250° West 367 422 11,900 -1,742 Descending Chicago Center
Sun 01:37:20 PM 42.4722 -87.0558 250° West 352 405 10,200 -912 Descending Chicago Center
Sun 01:38:23 PM 42.4397 -87.1747 250° West 340 391 10,000 -96 Descending Chicago Center
Sun 01:39:25 PM 42.4056 -87.2961 249° West 345 397 10,000  Level Chicago Center
Sun 01:40:27 PM 42.3675 -87.4397 250° West 347 399 10,000  Level Chicago Center
Sun 01:41:29 PM 42.3236 -87.5519 242° Southwest 345 397 10,000  Level Chicago Center
Sun 01:42:31 PM 42.2497 -87.6317 219° Southwest 340 391 10,000 -387 Level Chicago Center
Sun 01:43:33 PM 42.1875 -87.6958 217° Southwest 290 334 9,200 -1,065 Descending Chicago Center
Sun 01:44:35 PM 42.1139 -87.7731 218° Southwest 283 326 7,800 -1,039 Descending Chicago Center
Sun 01:45:40 PM 42.0500 -87.8333 215° Southwest 265 305 7,000 -384 Descending Chicago TRACON
Sun 01:46:40 PM 42.0000 -87.9167 231° Southwest 211 243 7,000  Level Chicago TRACON
Sun 01:47:40 PM 41.9667 -87.9667 228° Southwest 280 322 7,000 -100 Level Chicago TRACON
Sun 01:48:40 PM 41.9167 -88.0333 225° Southwest 231 266 6,800 -750 Descending Chicago TRACON
Sun 01:49:40 PM 41.9000 -88.1333 257° West 251 289 5,500 -844 Descending Chicago TRACON
Sun 01:50:48 PM 41.8744 -88.2206 249° West 245 282 5,000 -231 Descending Chicago Center
Sun 01:51:50 PM 41.8736 -88.2931 269° West 216 249 5,000  Level Chicago Center
Sun 01:52:52 PM 41.8761 -88.3603 273° West 197 227 5,000  Level Chicago Center
Sun 01:53:54 PM 41.9286 -88.3678 354° North 197 227 5,000  Level Chicago Center
Sun 01:54:56 PM 41.9561 -88.2972 62° Northeast 187 215 5,000  Level Chicago Center
Sun 01:55:58 PM 41.9678 -88.2369 75° East 174 200 5,000 -435 Level Chicago Center
Sun 01:57:00 PM 41.9678 -88.1683 90° East 181 208 4,100 -871 Descending Chicago Center
Sun 01:58:02 PM 41.9681 -88.1089 90° East 173 199 3,200 -884 Descending Chicago Center
Sun 01:58:35 PM 41.9667 -88.0667 93° East 153 176 2,700 -839 Descending Chicago TRACON
Sun 01:59:35 PM 41.9667 -88.0167 90° East 135 155 1,900 -700 Descending Chicago TRACON
Sun 02:00:35 PM 41.9667 -87.9667 90° East 130 150 1,300 -600 Descending Chicago TRACON

Login

Don't have an account? Register now (free) for customized features, flight alerts, and more!